createdAt,value
2022-08-09T00:00:11.309Z,99.90
2022-08-09T00:02:49.167Z,99.90
2022-08-09T00:06:15.746Z,99.90
2022-08-09T00:08:10.805Z,99.90
2022-08-09T00:10:40.184Z,99.90
2022-08-09T00:13:16.879Z,99.90
2022-08-09T00:15:59.446Z,99.90
2022-08-09T00:18:34.988Z,99.90
2022-08-09T00:21:07.980Z,99.90
2022-08-09T00:23:57.564Z,99.90
2022-08-09T00:26:29.890Z,99.90
2022-08-09T00:29:02.316Z,99.90
2022-08-09T00:31:59.973Z,99.90
2022-08-09T00:34:20.781Z,99.90
2022-08-09T00:36:49.828Z,99.90
2022-08-09T00:40:09.649Z,99.90
2022-08-09T00:44:11.856Z,99.90
2022-08-09T00:44:55.499Z,99.90
2022-08-09T00:47:25.346Z,99.90
2022-08-09T00:49:55.188Z,99.90
2022-08-09T00:52:30.615Z,99.90
2022-08-09T00:55:01.149Z,99.90
2022-08-09T00:57:33.659Z,99.90
2022-08-09T01:00:05.189Z,99.90
2022-08-09T01:02:51.200Z,99.90
2022-08-09T01:05:53.426Z,99.90
2022-08-09T01:08:26.726Z,99.90
2022-08-09T01:11:08.456Z,99.90
2022-08-09T01:13:58.986Z,99.90
2022-08-09T01:16:32.860Z,99.90
2022-08-09T01:19:17.177Z,99.90
2022-08-09T01:22:16.731Z,99.90
2022-08-09T01:24:56.821Z,99.90
2022-08-09T01:27:27.595Z,99.90
2022-08-09T01:30:01.156Z,99.90
2022-08-09T01:32:35.102Z,99.90
2022-08-09T01:35:28.418Z,99.90
2022-08-09T01:38:15.425Z,99.90
2022-08-09T01:40:52.774Z,99.90
2022-08-09T01:43:47.925Z,99.90
2022-08-09T01:46:25.143Z,99.90
2022-08-09T01:49:00.299Z,99.90
2022-08-09T01:51:42.700Z,99.90
2022-08-09T01:54:14.729Z,99.90
2022-08-09T01:56:51.361Z,99.90
2022-08-09T01:59:23.262Z,99.90
2022-08-09T02:01:59.598Z,99.90
2022-08-09T02:04:31.429Z,99.90
2022-08-09T02:07:18.037Z,99.90
2022-08-09T02:10:01.415Z,99.90
2022-08-09T02:12:34.965Z,99.90
2022-08-09T02:15:08.051Z,99.90
2022-08-09T02:17:59.860Z,99.90
2022-08-09T02:20:34.077Z,99.90
2022-08-09T02:23:07.205Z,99.90
2022-08-09T02:25:41.872Z,99.90
2022-08-09T02:28:17.837Z,99.90
2022-08-09T02:30:51.749Z,99.90
2022-08-09T02:33:37.887Z,99.90
2022-08-09T02:36:11.641Z,99.90
2022-08-09T02:38:47.893Z,99.90
2022-08-09T02:41:24.773Z,99.90
2022-08-09T02:43:55.657Z,99.90
2022-08-09T02:46:28.734Z,99.90
2022-08-09T02:49:02.565Z,99.90
2022-08-09T02:51:40.062Z,99.90
2022-08-09T02:54:13.819Z,99.90
2022-08-09T02:56:51.098Z,99.90
2022-08-09T02:59:25.928Z,99.90
2022-08-09T03:02:09.745Z,99.90
2022-08-09T03:04:41.820Z,99.90
2022-08-09T03:07:13.948Z,99.90
2022-08-09T03:09:56.258Z,99.90
2022-08-09T03:12:27.150Z,99.90
2022-08-09T03:14:57.526Z,99.90
2022-08-09T03:17:27.806Z,99.90
2022-08-09T03:20:02.814Z,99.90
2022-08-09T03:22:42.138Z,99.90
2022-08-09T03:25:21.983Z,99.90
2022-08-09T03:28:03.565Z,99.90
2022-08-09T03:30:33.918Z,99.90
2022-08-09T03:33:12.984Z,99.90
2022-08-09T03:36:12.282Z,99.90
2022-08-09T03:38:41.844Z,99.90
2022-08-09T03:41:15.376Z,99.90
2022-08-09T03:44:02.784Z,99.90
2022-08-09T03:46:33.319Z,99.90
2022-08-09T03:49:08.941Z,99.90
2022-08-09T03:51:56.535Z,99.90
2022-08-09T03:54:31.818Z,99.90
2022-08-09T03:57:18.369Z,99.90
2022-08-09T03:59:53.426Z,99.90
2022-08-09T04:02:27.898Z,99.90
2022-08-09T04:05:00.856Z,99.90
2022-08-09T04:07:47.320Z,99.90
2022-08-09T04:10:20.985Z,99.90
2022-08-09T04:13:01.128Z,99.90
2022-08-09T04:16:18.781Z,99.90
2022-08-09T04:18:21.229Z,99.90
2022-08-09T04:20:52.053Z,99.90
2022-08-09T04:23:24.532Z,99.90
2022-08-09T04:25:54.420Z,99.90
2022-08-09T04:28:34.145Z,99.90
2022-08-09T04:31:10.113Z,99.90
2022-08-09T04:33:47.589Z,99.90
2022-08-09T04:36:27.890Z,99.90
2022-08-09T04:38:58.058Z,99.90
2022-08-09T04:41:32.235Z,99.90
2022-08-09T04:44:06.309Z,99.90
2022-08-09T04:46:58.079Z,99.90
2022-08-09T04:49:40.235Z,99.90
2022-08-09T04:52:18.632Z,99.90
2022-08-09T04:54:54.481Z,99.90
2022-08-09T04:57:23.924Z,99.90
2022-08-09T04:59:54.495Z,99.90
2022-08-09T05:02:22.978Z,99.90
2022-08-09T05:04:55.085Z,99.90
2022-08-09T05:07:29.112Z,99.90
2022-08-09T05:10:01.780Z,99.90
2022-08-09T05:12:33.088Z,99.90
2022-08-09T05:15:11.687Z,99.90
2022-08-09T05:18:39.414Z,99.90
2022-08-09T05:20:30.474Z,99.90
2022-08-09T05:23:53.988Z,99.90
2022-08-09T05:25:50.982Z,99.90
2022-08-09T05:28:20.032Z,99.90
2022-08-09T05:30:48.595Z,99.90
2022-08-09T05:33:19.921Z,99.90
2022-08-09T05:35:54.897Z,99.90
2022-08-09T05:38:28.006Z,99.90
2022-08-09T05:40:56.239Z,99.90
2022-08-09T05:43:24.683Z,99.90
2022-08-09T05:45:59.842Z,99.90
2022-08-09T05:48:33.133Z,99.90
2022-08-09T05:51:30.198Z,99.90
2022-08-09T05:53:57.441Z,99.90
2022-08-09T05:56:29.060Z,99.90
2022-08-09T05:58:59.131Z,99.90
2022-08-09T06:01:33.934Z,99.90
2022-08-09T06:04:12.266Z,99.90
2022-08-09T06:06:46.748Z,99.90
2022-08-09T06:09:23.100Z,99.90
2022-08-09T06:12:08.233Z,99.90
2022-08-09T06:14:37.209Z,99.90
2022-08-09T06:17:09.803Z,99.90
2022-08-09T06:19:38.502Z,99.90
2022-08-09T06:22:15.022Z,99.90
2022-08-09T06:24:45.120Z,99.90
2022-08-09T06:27:15.635Z,99.90
2022-08-09T06:29:48.399Z,99.90
2022-08-09T06:33:13.539Z,99.90
2022-08-09T06:35:20.980Z,99.90
2022-08-09T06:38:06.098Z,99.90
2022-08-09T06:40:36.685Z,99.90
2022-08-09T06:43:07.710Z,99.90
2022-08-09T06:46:05.235Z,99.90
2022-08-09T06:48:31.099Z,99.90
2022-08-09T06:51:00.039Z,99.90
2022-08-09T06:53:33.357Z,99.90
2022-08-09T06:56:09.406Z,99.90
2022-08-09T07:00:48.598Z,99.90
2022-08-09T07:01:35.613Z,99.90
2022-08-09T07:04:19.695Z,99.90
2022-08-09T07:06:48.501Z,99.90
2022-08-09T07:09:56.022Z,99.90
2022-08-09T07:12:17.494Z,99.90
2022-08-09T07:14:51.395Z,99.90
2022-08-09T07:17:21.893Z,99.90
2022-08-09T07:19:50.899Z,99.90
2022-08-09T07:22:34.305Z,99.90
2022-08-09T07:25:05.412Z,99.90
2022-08-09T07:27:42.392Z,99.90
2022-08-09T07:30:14.218Z,99.90
2022-08-09T07:32:43.187Z,99.90
2022-08-09T07:35:15.052Z,99.90
2022-08-09T07:37:46.088Z,99.90
2022-08-09T07:40:20.765Z,99.90
2022-08-09T07:42:58.607Z,99.90
2022-08-09T07:45:39.097Z,99.90
2022-08-09T07:48:25.384Z,99.90
2022-08-09T07:51:09.271Z,99.90
2022-08-09T07:54:07.594Z,99.90
2022-08-09T07:56:45.044Z,99.90
2022-08-09T07:59:33.702Z,99.90
2022-08-09T08:02:09.343Z,99.90
2022-08-09T08:04:38.802Z,99.90
2022-08-09T08:07:27.210Z,99.90
2022-08-09T08:10:07.642Z,99.90
2022-08-09T08:12:42.550Z,99.90
2022-08-09T08:15:16.832Z,99.90
2022-08-09T08:17:53.674Z,99.90
2022-08-09T08:20:29.078Z,99.90
2022-08-09T08:23:06.386Z,99.90
2022-08-09T08:25:49.842Z,99.90
2022-08-09T08:28:32.065Z,99.90
2022-08-09T08:31:14.142Z,99.90
2022-08-09T08:33:52.527Z,99.90
2022-08-09T08:36:29.158Z,99.90
2022-08-09T08:38:58.805Z,99.90
2022-08-09T08:41:50.855Z,99.90
2022-08-09T08:44:23.176Z,99.90
2022-08-09T08:47:02.080Z,99.90
2022-08-09T08:49:47.023Z,99.90
2022-08-09T08:55:07.638Z,99.90
2022-08-09T08:57:37.632Z,99.90
2022-08-09T09:00:17.071Z,99.90
2022-08-09T09:02:53.639Z,99.90
2022-08-09T09:05:59.203Z,99.90
2022-08-09T09:08:30.347Z,99.90
2022-08-09T09:11:03.754Z,99.90
2022-08-09T09:13:47.482Z,99.90
2022-08-09T09:16:30.571Z,99.90
2022-08-09T09:22:02.958Z,99.90
2022-08-09T09:24:34.691Z,99.90
2022-08-09T09:27:04.119Z,99.90
2022-08-09T09:30:05.423Z,99.90
2022-08-09T09:32:34.686Z,99.90
2022-08-09T09:35:07.682Z,99.90
2022-08-09T09:37:40.722Z,99.90
2022-08-09T09:40:11.720Z,99.90
2022-08-09T09:42:43.077Z,99.90
2022-08-09T09:45:26.480Z,99.90
2022-08-09T09:47:58.900Z,99.90
2022-08-09T09:50:50.675Z,99.90
2022-08-09T09:53:21.600Z,99.90
2022-08-09T09:56:04.346Z,99.90
2022-08-09T09:58:46.339Z,99.90
2022-08-09T10:01:31.217Z,99.90
2022-08-09T10:04:16.321Z,99.90
2022-08-09T10:06:54.409Z,99.90
2022-08-09T10:09:23.996Z,99.90
2022-08-09T10:12:12.864Z,99.90
2022-08-09T10:14:49.002Z,99.90
2022-08-09T10:17:40.147Z,99.90
2022-08-09T10:20:27.531Z,99.90
2022-08-09T10:23:17.364Z,99.90
2022-08-09T10:26:07.111Z,99.90
2022-08-09T10:28:38.280Z,99.90
2022-08-09T10:34:08.619Z,99.90
2022-08-09T10:36:46.746Z,99.90
2022-08-09T10:39:19.540Z,99.90
2022-08-09T10:41:48.601Z,99.90
2022-08-09T10:44:21.666Z,99.90
2022-08-09T10:48:12.703Z,99.90
2022-08-09T10:50:09.743Z,99.90
2022-08-09T10:53:14.962Z,99.90
2022-08-09T10:55:55.430Z,99.90
2022-08-09T10:58:32.361Z,99.90
2022-08-09T11:03:02.232Z,99.90
2022-08-09T11:04:27.962Z,99.90
2022-08-09T11:07:57.062Z,99.90
2022-08-09T11:10:17.510Z,99.90
2022-08-09T11:13:49.123Z,99.90
2022-08-09T11:16:37.123Z,99.00
2022-08-09T11:19:09.726Z,99.90
2022-08-09T11:22:10.226Z,99.90
2022-08-09T11:25:09.882Z,99.90
2022-08-09T11:28:04.669Z,98.90
2022-08-09T11:30:36.077Z,99.90
2022-08-09T11:33:06.782Z,99.90
2022-08-09T11:35:49.891Z,97.80
2022-08-09T11:38:22.073Z,99.20
2022-08-09T11:40:57.188Z,97.90
2022-08-09T11:43:43.015Z,99.20
2022-08-09T11:46:12.850Z,97.70
2022-08-09T11:48:56.443Z,97.80
2022-08-09T11:53:03.991Z,98.50
2022-08-09T11:54:27.771Z,98.00
2022-08-09T11:57:47.443Z,97.60
2022-08-09T12:00:22.838Z,97.70
2022-08-09T12:02:58.734Z,96.50
2022-08-09T12:05:39.495Z,96.60
2022-08-09T12:08:12.335Z,96.70
2022-08-09T12:10:48.349Z,98.20
2022-08-09T12:14:09.025Z,99.20
2022-08-09T12:16:30.766Z,98.20
2022-08-09T12:19:11.513Z,99.30
2022-08-09T12:21:50.770Z,99.40
2022-08-09T12:24:25.041Z,99.90
2022-08-09T12:29:09.877Z,99.50
2022-08-09T12:30:02.116Z,99.90
2022-08-09T12:32:44.688Z,99.90
2022-08-09T12:35:19.294Z,99.90
2022-08-09T12:37:52.282Z,99.90
2022-08-09T12:40:26.746Z,99.90
2022-08-09T12:42:55.753Z,99.90
2022-08-09T12:45:33.387Z,99.90
2022-08-09T12:48:10.671Z,99.90
2022-08-09T12:50:51.057Z,99.90
2022-08-09T12:53:35.152Z,99.90
2022-08-09T12:56:42.888Z,99.90
2022-08-09T12:59:08.858Z,99.60
2022-08-09T13:01:46.894Z,99.90
2022-08-09T13:04:36.954Z,99.90
2022-08-09T13:07:19.616Z,99.90
2022-08-09T13:09:55.488Z,99.90
2022-08-09T13:12:29.221Z,99.90
2022-08-09T13:15:07.432Z,99.90
2022-08-09T13:18:02.948Z,99.90
2022-08-09T13:20:36.941Z,99.90
2022-08-09T13:24:07.140Z,99.90
2022-08-09T13:25:56.763Z,99.90
2022-08-09T13:28:35.965Z,99.90
2022-08-09T13:32:17.628Z,99.90
2022-08-09T13:33:57.973Z,99.90
2022-08-09T13:36:41.134Z,99.90
2022-08-09T13:41:21.288Z,99.90
2022-08-09T13:42:02.586Z,99.90
2022-08-09T13:44:31.102Z,99.90
2022-08-09T13:47:27.766Z,99.90
2022-08-09T13:49:57.620Z,99.90
2022-08-09T13:52:29.929Z,99.90
2022-08-09T13:55:04.323Z,99.90
2022-08-09T13:57:40.212Z,99.90
2022-08-09T14:00:12.827Z,99.90
2022-08-09T14:03:04.330Z,99.90
2022-08-09T14:05:59.481Z,99.90
2022-08-09T14:08:19.570Z,99.90
2022-08-09T14:10:52.916Z,99.90
2022-08-09T14:14:16.278Z,99.90
2022-08-09T14:16:14.452Z,99.90
2022-08-09T14:18:45.732Z,99.90
2022-08-09T14:21:18.456Z,99.90
2022-08-09T14:23:54.477Z,99.90
2022-08-09T14:26:31.569Z,99.90
2022-08-09T14:29:01.305Z,99.90
2022-08-09T14:31:36.425Z,99.90
2022-08-09T14:34:31.892Z,99.90
2022-08-09T14:37:06.473Z,99.90
2022-08-09T14:39:45.232Z,99.90
2022-08-09T14:42:39.267Z,99.90
2022-08-09T14:46:39.402Z,99.90
2022-08-09T14:47:59.399Z,99.90
2022-08-09T14:50:30.705Z,99.90
2022-08-09T14:52:59.808Z,99.90
2022-08-09T14:55:31.981Z,99.90
2022-08-09T14:58:03.640Z,99.90
2022-08-09T15:00:33.548Z,99.90
2022-08-09T15:03:03.713Z,99.90
2022-08-09T15:05:32.985Z,99.90
2022-08-09T15:08:01.848Z,99.90
2022-08-09T15:10:31.772Z,99.90
2022-08-09T15:13:03.206Z,99.90
2022-08-09T15:15:34.356Z,99.90
2022-08-09T15:18:08.323Z,99.90
2022-08-09T15:21:55.464Z,99.90
2022-08-09T15:24:02.327Z,99.90
2022-08-09T15:26:30.767Z,99.90
2022-08-09T15:29:04.317Z,99.90
2022-08-09T15:31:41.518Z,99.90
2022-08-09T15:34:31.463Z,99.90
2022-08-09T15:37:03.743Z,99.90
2022-08-09T15:39:43.811Z,99.90
2022-08-09T15:42:21.785Z,99.90
2022-08-09T15:44:51.577Z,99.90
2022-08-09T15:47:21.560Z,99.90
2022-08-09T15:50:03.906Z,99.90
2022-08-09T15:52:34.703Z,99.90
2022-08-09T15:55:03.691Z,99.90
2022-08-09T15:57:34.645Z,99.90
2022-08-09T16:00:09.675Z,99.90
2022-08-09T16:02:43.170Z,99.90
2022-08-09T16:05:23.196Z,99.90
2022-08-09T16:07:51.566Z,99.90
2022-08-09T16:10:55.982Z,99.90
2022-08-09T16:13:20.711Z,99.90
2022-08-09T16:16:04.697Z,99.90
2022-08-09T16:18:44.737Z,99.90
2022-08-09T16:21:17.811Z,99.90
2022-08-09T16:23:54.753Z,99.90
2022-08-09T16:26:33.997Z,99.90
2022-08-09T16:29:10.334Z,99.90
2022-08-09T16:32:17.893Z,99.90
2022-08-09T16:34:54.520Z,99.90
2022-08-09T16:37:18.609Z,99.90
2022-08-09T16:39:54.854Z,99.90
2022-08-09T16:42:34.521Z,99.90
2022-08-09T16:45:05.042Z,99.90
2022-08-09T16:48:39.385Z,99.90
2022-08-09T16:50:31.899Z,99.90
2022-08-09T16:53:01.972Z,99.90
2022-08-09T16:56:00.278Z,99.90
2022-08-09T16:58:19.625Z,99.90
2022-08-09T17:00:50.054Z,99.90
2022-08-09T17:03:22.827Z,99.90
2022-08-09T17:06:07.771Z,99.90
2022-08-09T17:09:00.196Z,99.90
2022-08-09T17:11:41.279Z,99.90
2022-08-09T17:14:26.097Z,99.90
2022-08-09T17:16:59.973Z,99.90
2022-08-09T17:19:47.253Z,99.90
2022-08-09T17:22:24.846Z,99.90
2022-08-09T17:25:03.019Z,99.90
2022-08-09T17:27:32.339Z,99.90
2022-08-09T17:30:06.762Z,99.90
2022-08-09T17:32:38.600Z,99.90
2022-08-09T17:35:11.652Z,99.90
2022-08-09T17:38:12.947Z,99.90
2022-08-09T17:40:30.440Z,99.90
2022-08-09T17:43:10.761Z,99.90
2022-08-09T17:46:02.632Z,99.90
2022-08-09T17:48:33.258Z,99.90
2022-08-09T17:51:08.985Z,99.90
2022-08-09T17:53:43.280Z,99.90
2022-08-09T17:56:18.192Z,99.90
2022-08-09T17:58:47.002Z,99.90
2022-08-09T18:01:22.827Z,99.90
2022-08-09T18:03:52.276Z,99.90
2022-08-09T18:06:31.256Z,99.90
2022-08-09T18:09:03.427Z,99.90
2022-08-09T18:11:47.044Z,99.90
2022-08-09T18:14:22.870Z,99.90
2022-08-09T18:16:53.031Z,99.90
2022-08-09T18:20:58.881Z,99.90
2022-08-09T18:22:17.162Z,99.90
2022-08-09T18:24:46.603Z,99.90
2022-08-09T18:27:18.851Z,99.90
2022-08-09T18:30:40.711Z,99.90
2022-08-09T18:32:54.354Z,99.90
2022-08-09T18:35:48.020Z,99.90
2022-08-09T18:38:15.576Z,99.90
2022-08-09T18:40:45.011Z,99.90
2022-08-09T18:43:13.626Z,99.90
2022-08-09T18:46:48.425Z,99.90
2022-08-09T18:48:33.022Z,99.90
2022-08-09T18:51:01.437Z,99.90
2022-08-09T18:53:56.528Z,99.90
2022-08-09T18:56:28.183Z,99.90
2022-08-09T18:58:56.965Z,99.90
2022-08-09T19:01:25.786Z,99.90
2022-08-09T19:04:06.284Z,99.90
2022-08-09T19:06:38.519Z,99.90
2022-08-09T19:09:09.054Z,99.90
2022-08-09T19:11:44.246Z,99.90
2022-08-09T19:14:15.944Z,99.90
2022-08-09T19:16:50.146Z,99.90
2022-08-09T19:19:25.394Z,99.90
2022-08-09T19:22:06.321Z,99.90
2022-08-09T19:25:09.981Z,99.90
2022-08-09T19:27:28.710Z,99.90
2022-08-09T19:30:22.236Z,99.90
2022-08-09T19:32:45.584Z,99.90
2022-08-09T19:35:17.427Z,99.90
2022-08-09T19:37:55.890Z,99.90
2022-08-09T19:40:33.357Z,99.90
2022-08-09T19:43:05.304Z,99.90
2022-08-09T19:45:40.455Z,99.90
2022-08-09T19:48:10.762Z,99.90
2022-08-09T19:50:49.587Z,99.90
2022-08-09T19:53:20.587Z,99.90
2022-08-09T19:56:02.914Z,99.90
2022-08-09T19:58:35.768Z,99.90
2022-08-09T20:01:04.162Z,99.90
2022-08-09T20:04:25.227Z,99.90
2022-08-09T20:06:23.218Z,99.90
2022-08-09T20:08:52.637Z,99.90
2022-08-09T20:11:27.057Z,99.90
2022-08-09T20:14:01.798Z,99.90
2022-08-09T20:16:49.795Z,99.90
2022-08-09T20:19:48.490Z,99.90
2022-08-09T20:22:09.867Z,99.90
2022-08-09T20:24:40.746Z,99.90
2022-08-09T20:27:11.463Z,99.90
2022-08-09T20:29:40.382Z,99.90
2022-08-09T20:32:31.225Z,99.90
2022-08-09T20:34:57.832Z,99.90
2022-08-09T20:37:37.928Z,99.90
2022-08-09T20:40:19.009Z,99.90
2022-08-09T20:43:00.183Z,99.90
2022-08-09T20:46:00.403Z,99.90
2022-08-09T20:48:30.989Z,99.90
2022-08-09T20:50:59.664Z,99.90
2022-08-09T20:53:37.030Z,99.90
2022-08-09T20:56:09.435Z,99.90
2022-08-09T20:58:58.051Z,99.90
2022-08-09T21:01:34.767Z,99.90
2022-08-09T21:05:53.797Z,99.90
2022-08-09T21:07:11.918Z,99.90
2022-08-09T21:09:45.489Z,99.90
2022-08-09T21:15:13.845Z,99.90
2022-08-09T21:18:23.529Z,99.90
2022-08-09T21:20:30.936Z,99.90
2022-08-09T21:23:00.344Z,99.90
2022-08-09T21:25:55.853Z,99.90
2022-08-09T21:28:34.912Z,99.90
2022-08-09T21:31:16.853Z,99.90
2022-08-09T21:33:50.516Z,99.90
2022-08-09T21:36:20.895Z,99.90
2022-08-09T21:38:57.862Z,99.90
2022-08-09T21:42:03.631Z,99.90
2022-08-09T21:44:33.384Z,99.90
2022-08-09T21:47:05.753Z,99.90
2022-08-09T21:49:40.400Z,99.90
2022-08-09T21:52:17.628Z,99.90
2022-08-09T21:54:59.370Z,99.90
2022-08-09T21:57:39.218Z,99.90
2022-08-09T22:00:25.520Z,99.90
2022-08-09T22:02:58.726Z,99.90
2022-08-09T22:05:36.710Z,99.90
2022-08-09T22:08:14.720Z,99.90
2022-08-09T22:11:50.075Z,99.90
2022-08-09T22:13:37.082Z,99.90
2022-08-09T22:16:08.364Z,99.90
2022-08-09T22:18:53.121Z,99.90
2022-08-09T22:21:24.385Z,99.90
2022-08-09T22:24:00.050Z,99.90
2022-08-09T22:26:35.499Z,99.90
2022-08-09T22:29:08.710Z,99.90
2022-08-09T22:31:50.493Z,99.90
2022-08-09T22:34:27.442Z,99.90
2022-08-09T22:36:56.071Z,99.90
2022-08-09T22:39:57.299Z,99.90
2022-08-09T22:42:22.510Z,99.90
2022-08-09T22:45:00.170Z,99.90
2022-08-09T22:48:19.747Z,99.90
2022-08-09T22:50:32.382Z,99.90
2022-08-09T22:53:04.012Z,99.90
2022-08-09T22:56:05.936Z,99.90
2022-08-09T22:58:32.438Z,99.90
2022-08-09T23:01:02.913Z,99.90
2022-08-09T23:04:03.330Z,99.90
2022-08-09T23:06:32.523Z,99.90
2022-08-09T23:09:04.812Z,99.90
2022-08-09T23:11:32.934Z,99.90
2022-08-09T23:14:02.822Z,99.90
2022-08-09T23:16:30.921Z,99.90
2022-08-09T23:18:58.984Z,99.90
2022-08-09T23:21:33.380Z,99.90
2022-08-09T23:24:06.565Z,99.90
2022-08-09T23:26:35.741Z,99.90
2022-08-09T23:29:04.527Z,99.90
2022-08-09T23:31:32.597Z,99.90
2022-08-09T23:34:00.696Z,99.90
2022-08-09T23:36:32.269Z,99.90
2022-08-09T23:39:00.615Z,99.90
2022-08-09T23:41:29.764Z,99.90
2022-08-09T23:43:59.173Z,99.90
2022-08-09T23:46:27.461Z,99.90
2022-08-09T23:48:55.531Z,99.90
2022-08-09T23:51:23.615Z,99.90
2022-08-09T23:53:55.153Z,99.90
2022-08-09T23:56:52.063Z,99.90
2022-08-09T23:59:13.351Z,99.90
